createdAt,value
2022-10-29T00:00:15.721Z,97768.16
2022-10-29T00:02:42.392Z,97785.91
2022-10-29T00:05:09.300Z,97777.78
2022-10-29T00:07:35.963Z,97785.09
2022-10-29T00:10:02.603Z,97806.09
2022-10-29T00:12:29.355Z,97791.00
2022-10-29T00:14:55.975Z,97787.25
2022-10-29T00:17:22.584Z,97786.72
2022-10-29T00:19:49.184Z,97781.03
2022-10-29T00:22:15.820Z,97818.47
2022-10-29T00:24:42.479Z,97773.47
2022-10-29T00:27:09.107Z,97774.81
2022-10-29T00:29:35.827Z,97789.63
2022-10-29T00:32:02.406Z,97818.69
2022-10-29T00:34:29.192Z,97795.28
2022-10-29T00:36:55.841Z,97794.75
2022-10-29T00:39:22.527Z,97800.66
2022-10-29T00:41:49.149Z,97783.16
2022-10-29T00:44:15.928Z,97781.81
2022-10-29T00:46:50.262Z,97778.56
2022-10-29T00:49:17.043Z,97773.72
2022-10-29T00:51:43.654Z,97779.09
2022-10-29T00:54:13.102Z,97797.38
2022-10-29T00:56:57.946Z,97796.03
2022-10-29T00:59:24.706Z,97779.06
2022-10-29T01:01:51.378Z,97786.06
2022-10-29T01:04:18.327Z,97765.38
2022-10-29T01:06:44.951Z,97800.06
2022-10-29T01:09:11.523Z,97773.72
2022-10-29T01:11:44.273Z,97785.31
2022-10-29T01:14:29.497Z,97788.03
2022-10-29T01:17:03.516Z,97802.00
2022-10-29T01:19:49.426Z,97797.69
2022-10-29T01:22:20.006Z,97800.13
2022-10-29T01:25:05.348Z,97801.19
2022-10-29T01:27:49.116Z,97783.97
2022-10-29T01:30:42.618Z,97791.53
2022-10-29T01:33:22.460Z,97782.63
2022-10-29T01:36:14.419Z,97798.47
2022-10-29T01:39:05.091Z,97805.69
2022-10-29T01:41:43.707Z,97830.72
2022-10-29T01:45:01.052Z,97803.53
2022-10-29T01:47:30.013Z,97789.03
2022-10-29T01:50:03.712Z,97788.75
2022-10-29T01:52:32.209Z,97771.78
2022-10-29T01:54:58.838Z,97789.81
2022-10-29T01:57:25.293Z,97793.56
2022-10-29T01:59:55.999Z,97791.94
2022-10-29T02:02:30.985Z,97804.53
2022-10-29T02:05:07.764Z,97799.72
2022-10-29T02:08:36.219Z,97784.91
2022-10-29T02:11:18.111Z,97770.91
2022-10-29T02:13:50.120Z,97776.25
2022-10-29T02:16:16.802Z,97776.75
2022-10-29T02:18:47.392Z,97774.84
2022-10-29T02:21:17.851Z,97771.34
2022-10-29T02:23:44.444Z,97787.78
2022-10-29T02:26:11.130Z,97745.28
2022-10-29T02:28:37.826Z,97760.84
2022-10-29T02:31:04.590Z,97761.13
2022-10-29T02:33:31.293Z,97787.78
2022-10-29T02:35:57.907Z,97776.78
2022-10-29T02:38:24.568Z,97773.56
2022-10-29T02:40:51.121Z,97790.28
2022-10-29T02:43:20.730Z,97744.00
2022-10-29T02:45:47.407Z,97750.97
2022-10-29T02:48:14.008Z,97745.03
2022-10-29T02:50:40.632Z,97724.03
2022-10-29T02:53:07.640Z,97744.47
2022-10-29T02:55:34.258Z,97757.38
2022-10-29T02:58:00.848Z,97722.44
2022-10-29T03:00:27.654Z,97753.63
2022-10-29T03:02:54.664Z,97740.97
2022-10-29T03:05:21.543Z,97736.94
2022-10-29T03:07:48.113Z,97736.69
2022-10-29T03:10:14.740Z,97737.22
2022-10-29T03:12:41.373Z,97757.38
2022-10-29T03:15:08.683Z,97732.09
2022-10-29T03:17:35.375Z,97772.50
2022-10-29T03:20:01.943Z,97740.75
2022-10-29T03:22:28.545Z,97756.88
2022-10-29T03:24:55.123Z,97739.22
2022-10-29T03:27:21.658Z,97750.78
2022-10-29T03:29:48.546Z,97745.16
2022-10-29T03:32:15.243Z,97748.59
2022-10-29T03:34:41.839Z,97759.06
2022-10-29T03:37:08.446Z,97768.19
2022-10-29T03:39:35.121Z,97738.09
2022-10-29T03:42:01.761Z,97763.09
2022-10-29T03:44:28.334Z,97751.25
2022-10-29T03:46:54.940Z,97769.31
2022-10-29T03:49:21.556Z,97740.00
2022-10-29T03:51:48.187Z,97742.16
2022-10-29T03:54:14.801Z,97739.72
2022-10-29T03:56:41.446Z,97732.16
2022-10-29T03:59:08.040Z,97731.06
2022-10-29T04:01:34.838Z,97747.44
2022-10-29T04:04:01.641Z,97740.41
2022-10-29T04:06:28.503Z,97746.34
2022-10-29T04:08:55.132Z,97757.13
2022-10-29T04:11:21.683Z,97763.84
2022-10-29T04:13:52.170Z,97765.22
2022-10-29T04:16:18.721Z,97789.66
2022-10-29T04:18:47.588Z,97741.31
2022-10-29T04:29:33.898Z,97777.03
2022-10-29T04:32:00.565Z,97757.16
2022-10-29T04:34:28.272Z,97791.84
2022-10-29T04:36:54.905Z,97780.53
2022-10-29T04:39:23.385Z,97773.28
2022-10-29T04:41:50.217Z,97738.56
2022-10-29T04:44:16.938Z,97768.94
2022-10-29T04:46:43.585Z,97770.03
2022-10-29T04:49:14.443Z,97746.81
2022-10-29T04:51:41.107Z,97762.16
2022-10-29T04:54:07.672Z,97751.72
2022-10-29T04:56:34.387Z,97758.16
2022-10-29T04:59:00.998Z,97742.84
2022-10-29T05:01:27.873Z,97735.34
2022-10-29T05:03:58.853Z,97754.72
2022-10-29T05:06:26.896Z,97748.00
2022-10-29T05:08:53.515Z,97758.53
2022-10-29T05:11:20.428Z,97735.13
2022-10-29T05:13:47.178Z,97748.56
2022-10-29T05:16:13.780Z,97785.47
2022-10-29T05:18:40.433Z,97795.41
2022-10-29T05:21:07.011Z,97774.97
2022-10-29T05:23:33.642Z,97769.03
2022-10-29T05:26:00.289Z,97756.34
2022-10-29T05:28:26.943Z,97764.19
2022-10-29T05:30:53.608Z,97762.53
2022-10-29T05:33:22.192Z,97765.00
2022-10-29T05:35:48.949Z,97756.63
2022-10-29T05:38:15.647Z,97750.75
2022-10-29T05:40:43.054Z,97738.09
2022-10-29T05:43:09.798Z,97746.72
2022-10-29T05:45:36.459Z,97741.09
2022-10-29T05:48:03.964Z,97733.81
2022-10-29T05:50:31.061Z,97741.63
2022-10-29T05:52:58.901Z,97759.94
2022-10-29T05:55:25.844Z,97742.44
2022-10-29T05:57:58.265Z,97755.91
2022-10-29T06:00:25.853Z,97748.63
2022-10-29T06:02:52.660Z,97764.50
2022-10-29T06:05:23.073Z,97772.31
2022-10-29T06:07:59.293Z,97768.81
2022-10-29T06:10:27.529Z,97796.25
2022-10-29T06:12:54.326Z,97779.81
2022-10-29T06:15:21.099Z,97774.47
2022-10-29T06:17:47.834Z,97781.72
2022-10-29T06:20:16.038Z,97784.13
2022-10-29T06:22:42.705Z,97781.47
2022-10-29T06:25:09.609Z,97802.22
2022-10-29T06:27:36.578Z,97790.38
2022-10-29T06:30:04.304Z,97782.81
2022-10-29T06:32:31.036Z,97790.13
2022-10-29T06:34:57.999Z,97805.19
2022-10-29T06:37:24.949Z,97817.63
2022-10-29T06:39:51.536Z,97830.81
2022-10-29T06:42:19.968Z,97819.53
2022-10-29T06:44:46.695Z,97819.28
2022-10-29T06:47:14.586Z,97850.78
2022-10-29T06:49:41.171Z,97810.38
2022-10-29T06:52:07.759Z,97801.78
2022-10-29T06:54:35.196Z,97810.94
2022-10-29T06:57:01.791Z,97819.53
2022-10-29T06:59:28.476Z,97803.66
2022-10-29T07:01:55.190Z,97789.94
2022-10-29T07:04:21.903Z,97822.25
2022-10-29T07:06:48.573Z,97793.69
2022-10-29T07:09:15.207Z,97826.84
2022-10-29T07:11:41.804Z,97812.00
2022-10-29T07:14:08.542Z,97836.28
2022-10-29T07:16:35.904Z,97827.69
2022-10-29T07:19:03.708Z,97816.66
2022-10-29T07:21:30.350Z,97822.81
2022-10-29T07:23:56.990Z,97825.00
2022-10-29T07:26:23.571Z,97797.50
2022-10-29T07:28:50.209Z,97793.75
2022-10-29T07:31:16.828Z,97836.03
2022-10-29T07:33:43.457Z,97807.22
2022-10-29T07:36:10.099Z,97819.56
2022-10-29T07:38:36.751Z,97829.03
2022-10-29T07:41:03.441Z,97813.91
2022-10-29T07:43:31.134Z,97814.72
2022-10-29T07:45:57.739Z,97846.78
2022-10-29T07:48:24.362Z,97801.50
2022-10-29T07:50:51.060Z,97818.22
2022-10-29T07:53:17.731Z,97828.44
2022-10-29T07:55:44.491Z,97829.81
2022-10-29T07:58:12.770Z,97840.00
2022-10-29T08:00:40.358Z,97843.22
2022-10-29T08:03:07.521Z,97823.25
2022-10-29T08:05:34.199Z,97832.94
2022-10-29T08:08:01.056Z,97819.44
2022-10-29T08:10:28.020Z,97830.44
2022-10-29T08:12:57.607Z,97839.34
2022-10-29T08:15:24.793Z,97808.56
2022-10-29T08:17:51.487Z,97831.22
2022-10-29T08:20:18.263Z,97831.97
2022-10-29T08:22:44.882Z,97830.03
2022-10-29T08:25:11.549Z,97834.34
2022-10-29T08:27:38.165Z,97836.44
2022-10-29T08:30:10.668Z,97810.47
2022-10-29T08:32:37.249Z,97826.94
2022-10-29T08:35:04.034Z,97805.75
2022-10-29T08:37:30.710Z,97792.97
2022-10-29T08:39:57.457Z,97813.56
2022-10-29T08:42:23.944Z,97830.75
2022-10-29T08:45:08.452Z,97816.94
2022-10-29T08:48:03.420Z,97832.34
2022-10-29T08:50:31.107Z,97836.41
2022-10-29T08:53:23.004Z,97838.78
2022-10-29T08:55:44.490Z,97831.16
2022-10-29T08:58:19.890Z,97813.28
2022-10-29T09:00:46.515Z,97827.78
2022-10-29T09:03:13.231Z,97820.72
2022-10-29T09:05:58.529Z,97785.56
2022-10-29T09:09:03.887Z,97814.38
2022-10-29T09:11:53.947Z,97809.13
2022-10-29T09:14:28.724Z,97807.91
2022-10-29T09:17:23.092Z,97794.84
2022-10-29T09:19:59.600Z,97817.41
2022-10-29T09:22:36.436Z,97802.53
2022-10-29T09:25:12.873Z,97804.69
2022-10-29T09:28:08.287Z,97796.63
2022-10-29T09:30:50.531Z,97796.78
2022-10-29T09:33:18.492Z,97807.28
2022-10-29T09:35:49.334Z,97815.47
2022-10-29T09:38:34.998Z,97794.09
2022-10-29T09:41:02.994Z,97807.09
2022-10-29T09:43:49.920Z,97799.13
2022-10-29T09:46:22.135Z,97822.03
2022-10-29T09:51:55.180Z,97811.72
2022-10-29T09:54:23.326Z,97805.44
2022-10-29T09:56:54.867Z,97789.63
2022-10-29T09:59:47.523Z,97791.59
2022-10-29T10:02:50.850Z,97806.47
2022-10-29T10:05:23.253Z,97800.13
2022-10-29T10:08:06.410Z,97816.91
2022-10-29T10:10:33.395Z,97808.31
2022-10-29T10:13:04.152Z,97804.06
2022-10-29T10:15:33.180Z,97804.53
2022-10-29T10:18:26.974Z,97796.06
2022-10-29T10:21:09.017Z,97805.09
2022-10-29T10:23:42.870Z,97808.03
2022-10-29T10:26:42.568Z,97789.56
2022-10-29T10:29:19.085Z,97782.84
2022-10-29T10:31:46.824Z,97790.81
2022-10-29T10:34:21.351Z,97780.94
2022-10-29T10:36:55.783Z,97797.16
2022-10-29T10:39:34.704Z,97756.81
2022-10-29T10:42:06.698Z,97788.75
2022-10-29T10:44:33.367Z,97767.66
2022-10-29T10:47:05.471Z,97764.78
2022-10-29T10:49:35.882Z,97750.50
2022-10-29T10:52:12.017Z,97761.75
2022-10-29T10:54:39.711Z,97773.81
2022-10-29T10:57:12.393Z,97761.69
2022-10-29T11:00:05.149Z,97763.63
2022-10-29T11:02:50.275Z,97773.53
2022-10-29T11:05:24.582Z,97750.59
2022-10-29T11:07:57.670Z,97781.84
2022-10-29T11:10:33.546Z,97758.41
2022-10-29T11:13:01.701Z,97735.38
2022-10-29T11:15:47.342Z,97728.41
2022-10-29T11:18:18.849Z,97750.41
2022-10-29T11:20:49.514Z,97727.28
2022-10-29T11:23:28.109Z,97729.09
2022-10-29T11:26:10.149Z,97716.09
2022-10-29T11:28:43.670Z,97738.13
2022-10-29T11:31:36.600Z,97714.81
2022-10-29T11:34:41.821Z,97729.00
2022-10-29T11:37:29.688Z,97715.97
2022-10-29T11:40:04.326Z,97711.75
2022-10-29T11:42:31.153Z,97723.97
2022-10-29T11:44:58.347Z,97694.44
2022-10-29T11:47:46.761Z,97709.84
2022-10-29T11:50:28.742Z,97686.66
2022-10-29T11:53:01.308Z,97690.66
2022-10-29T11:55:37.038Z,97679.84
2022-10-29T11:58:23.447Z,97696.06
2022-10-29T12:01:06.083Z,97700.59
2022-10-29T12:06:43.696Z,97694.63
2022-10-29T12:09:41.262Z,97687.34
2022-10-29T12:12:12.124Z,97681.31
2022-10-29T12:15:19.635Z,97671.25
2022-10-29T12:18:03.772Z,97659.63
2022-10-29T12:20:58.929Z,97652.66
2022-10-29T12:23:44.372Z,97657.53
2022-10-29T12:26:26.131Z,97665.19
2022-10-29T12:29:03.187Z,97663.72
2022-10-29T12:31:30.747Z,97667.25
2022-10-29T12:34:01.749Z,97672.13
2022-10-29T12:36:35.617Z,97646.88
2022-10-29T12:39:02.291Z,97655.69
2022-10-29T12:41:35.863Z,97643.25
2022-10-29T12:44:13.881Z,97662.28
2022-10-29T12:46:52.656Z,97656.38
2022-10-29T12:49:22.208Z,97662.41
2022-10-29T12:51:54.882Z,97664.34
2022-10-29T12:54:23.432Z,97656.44
2022-10-29T12:56:50.587Z,97645.28
2022-10-29T12:59:37.408Z,97682.31
2022-10-29T13:02:25.212Z,97664.34
2022-10-29T13:05:07.174Z,97647.69
2022-10-29T13:07:34.289Z,97638.59
2022-10-29T13:10:22.643Z,97640.13
2022-10-29T13:12:55.023Z,97647.91
2022-10-29T13:16:20.676Z,97637.97
2022-10-29T13:18:56.442Z,97635.78
2022-10-29T13:22:01.992Z,97634.75
2022-10-29T13:24:28.979Z,97652.69
2022-10-29T13:26:57.360Z,97639.00
2022-10-29T13:29:49.531Z,97633.34
2022-10-29T13:32:32.886Z,97636.06
2022-10-29T13:35:00.591Z,97623.06
2022-10-29T13:37:37.105Z,97627.25
2022-10-29T13:40:21.941Z,97596.72
2022-10-29T13:42:57.286Z,97609.25
2022-10-29T13:45:24.139Z,97604.81
2022-10-29T13:47:50.766Z,97598.19
2022-10-29T13:50:18.254Z,97624.91
2022-10-29T13:52:46.018Z,97615.88
2022-10-29T13:55:14.874Z,97603.06
2022-10-29T13:58:01.936Z,97600.75
2022-10-29T14:00:28.600Z,97593.53
2022-10-29T14:03:07.808Z,97625.53
2022-10-29T14:05:45.282Z,97597.13
2022-10-29T14:08:15.300Z,97597.81
2022-10-29T14:10:41.786Z,97596.22
2022-10-29T14:13:19.232Z,97615.00
2022-10-29T14:16:06.945Z,97607.00
2022-10-29T14:18:35.496Z,97596.88
2022-10-29T14:21:02.800Z,97616.94
2022-10-29T14:23:30.050Z,97624.94
2022-10-29T14:25:57.841Z,97592.94
2022-10-29T14:28:25.839Z,97586.06
2022-10-29T14:31:06.437Z,97591.25
2022-10-29T14:33:34.728Z,97599.00
2022-10-29T14:36:19.393Z,97592.78
2022-10-29T14:38:57.519Z,97591.97
2022-10-29T14:41:24.849Z,97606.94
2022-10-29T14:44:19.276Z,97591.50
2022-10-29T14:46:58.515Z,97578.69
2022-10-29T14:49:25.224Z,97612.59
2022-10-29T14:52:00.403Z,97583.34
2022-10-29T14:54:28.379Z,97587.09
2022-10-29T14:57:00.940Z,97603.97
2022-10-29T14:59:29.419Z,97578.97
2022-10-29T15:02:05.816Z,97549.66
2022-10-29T15:04:56.396Z,97567.97
2022-10-29T15:07:22.900Z,97582.59
2022-10-29T15:09:50.324Z,97585.38
2022-10-29T15:12:20.584Z,97578.94
2022-10-29T15:14:49.433Z,97585.91
2022-10-29T15:17:28.111Z,97596.66
2022-10-29T15:19:57.594Z,97582.72
2022-10-29T15:22:34.374Z,97584.00
2022-10-29T15:25:02.217Z,97590.88
2022-10-29T15:27:28.915Z,97581.44
2022-10-29T15:29:55.591Z,97577.09
2022-10-29T15:32:24.140Z,97585.41
2022-10-29T15:34:57.125Z,97572.72
2022-10-29T15:37:26.284Z,97591.75
2022-10-29T15:39:55.755Z,97591.94
2022-10-29T15:42:32.971Z,97601.75
2022-10-29T15:47:43.732Z,97572.41
2022-10-29T15:50:12.072Z,97581.00
2022-10-29T15:52:43.518Z,97601.69
2022-10-29T15:55:26.914Z,97592.38
2022-10-29T15:57:55.459Z,97603.69
2022-10-29T16:00:22.971Z,97569.28
2022-10-29T16:02:50.046Z,97592.94
2022-10-29T16:05:17.080Z,97591.13
2022-10-29T16:07:43.756Z,97588.75
2022-10-29T16:10:18.832Z,97592.25
2022-10-29T16:12:45.651Z,97600.53
2022-10-29T16:15:17.086Z,97585.50
2022-10-29T16:17:43.779Z,97601.41
2022-10-29T16:20:15.265Z,97603.94
2022-10-29T16:22:41.939Z,97576.34
2022-10-29T16:25:22.999Z,97573.13
2022-10-29T16:27:49.914Z,97596.84
2022-10-29T16:30:16.730Z,97606.78
2022-10-29T16:32:43.840Z,97606.91
2022-10-29T16:35:28.030Z,97600.59
2022-10-29T16:37:55.090Z,97610.25
2022-10-29T16:40:23.992Z,97602.19
2022-10-29T16:42:50.700Z,97596.34
2022-10-29T16:45:19.929Z,97603.50
2022-10-29T16:47:46.693Z,97608.81
2022-10-29T16:50:27.354Z,97577.16
2022-10-29T16:53:03.475Z,97585.63
2022-10-29T16:55:30.222Z,97594.66
2022-10-29T16:57:57.234Z,97565.72
2022-10-29T17:00:24.895Z,97592.63
2022-10-29T17:02:51.639Z,97585.50
2022-10-29T17:05:18.404Z,97579.56
2022-10-29T17:07:44.996Z,97576.38
2022-10-29T17:10:11.682Z,97535.41
2022-10-29T17:12:38.383Z,97553.19
2022-10-29T17:15:05.538Z,97548.97
2022-10-29T17:17:32.187Z,97568.84
2022-10-29T17:19:58.823Z,97559.50
2022-10-29T17:22:25.544Z,97585.47
2022-10-29T17:24:52.265Z,97583.38
2022-10-29T17:27:18.990Z,97583.06
2022-10-29T17:29:45.664Z,97595.91
2022-10-29T17:32:12.334Z,97615.78
2022-10-29T17:34:38.988Z,97594.34
2022-10-29T17:37:05.627Z,97599.06
2022-10-29T17:39:32.430Z,97594.59
2022-10-29T17:41:59.371Z,97617.91
2022-10-29T17:44:26.731Z,97605.84
2022-10-29T17:46:53.971Z,97606.44
2022-10-29T17:49:21.105Z,97614.28
2022-10-29T17:51:47.808Z,97604.69
2022-10-29T17:54:17.195Z,97616.81
2022-10-29T17:56:43.890Z,97616.59
2022-10-29T17:59:10.573Z,97606.16
2022-10-29T18:01:37.311Z,97607.59
2022-10-29T18:04:04.859Z,97599.25
2022-10-29T18:06:31.593Z,97630.41
2022-10-29T18:08:59.251Z,97609.16
2022-10-29T18:11:25.929Z,97640.81
2022-10-29T18:13:52.880Z,97623.91
2022-10-29T18:16:24.392Z,97598.41
2022-10-29T18:19:01.604Z,97602.69
2022-10-29T18:21:29.560Z,97616.19
2022-10-29T18:23:56.210Z,97594.09
2022-10-29T18:26:25.953Z,97592.03
2022-10-29T18:28:53.526Z,97626.97
2022-10-29T18:31:20.447Z,97609.16
2022-10-29T18:33:47.223Z,97604.31
2022-10-29T18:36:14.108Z,97581.44
2022-10-29T18:38:41.894Z,97583.16
2022-10-29T18:41:08.571Z,97587.25
2022-10-29T18:43:35.396Z,97578.97
2022-10-29T18:46:03.958Z,97594.22
2022-10-29T18:51:04.293Z,97595.38
2022-10-29T18:53:31.503Z,97583.81
2022-10-29T18:55:58.264Z,97593.50
2022-10-29T18:58:25.078Z,97621.34
2022-10-29T19:00:51.716Z,97575.78
2022-10-29T19:03:18.459Z,97577.97
2022-10-29T19:05:45.171Z,97576.41
2022-10-29T19:08:12.588Z,97590.72
2022-10-29T19:10:41.366Z,97562.22
2022-10-29T19:13:08.151Z,97601.88
2022-10-29T19:15:35.748Z,97584.63
2022-10-29T19:18:02.631Z,97579.25
2022-10-29T19:20:30.280Z,97575.78
2022-10-29T19:22:57.659Z,97566.88
2022-10-29T19:25:24.946Z,97595.78
2022-10-29T19:27:51.927Z,97572.59
2022-10-29T19:30:18.675Z,97559.91
2022-10-29T19:32:45.401Z,97597.34
2022-10-29T19:35:12.081Z,97572.56
2022-10-29T19:37:38.676Z,97576.06
2022-10-29T19:40:06.280Z,97569.69
2022-10-29T19:42:32.916Z,97570.53
2022-10-29T19:44:59.491Z,97581.34
2022-10-29T19:47:26.069Z,97553.31
2022-10-29T19:49:53.020Z,97592.59
2022-10-29T19:52:19.637Z,97603.38
2022-10-29T19:54:46.294Z,97584.50
2022-10-29T19:57:12.894Z,97574.78
2022-10-29T19:59:39.558Z,97584.00
2022-10-29T20:02:09.145Z,97557.03
2022-10-29T20:04:35.860Z,97570.28
2022-10-29T20:07:02.645Z,97586.13
2022-10-29T20:09:29.306Z,97566.44
2022-10-29T20:11:55.938Z,97568.28
2022-10-29T20:14:27.953Z,97575.03
2022-10-29T20:16:55.537Z,97567.19
2022-10-29T20:19:22.225Z,97569.34
2022-10-29T20:21:48.868Z,97569.38
2022-10-29T20:24:15.447Z,97573.38
2022-10-29T20:26:42.117Z,97592.59
2022-10-29T20:29:08.810Z,97578.59
2022-10-29T20:31:40.088Z,97581.03
2022-10-29T20:34:08.271Z,97602.63
2022-10-29T20:36:35.031Z,97610.69
2022-10-29T20:39:01.749Z,97558.94
2022-10-29T20:41:28.663Z,97563.78
2022-10-29T20:43:56.814Z,97595.31
2022-10-29T20:46:23.647Z,97585.56
2022-10-29T20:48:50.275Z,97576.69
2022-10-29T20:51:16.887Z,97599.34
2022-10-29T20:53:44.057Z,97572.13
2022-10-29T20:56:13.309Z,97584.00
2022-10-29T20:58:42.823Z,97575.06
2022-10-29T21:01:11.253Z,97575.63
2022-10-29T21:03:37.967Z,97581.81
2022-10-29T21:06:05.457Z,97583.41
2022-10-29T21:08:32.246Z,97599.59
2022-10-29T21:11:03.443Z,97604.19
2022-10-29T21:13:30.130Z,97587.16
2022-10-29T21:15:56.808Z,97584.75
2022-10-29T21:18:23.888Z,97573.13
2022-10-29T21:20:50.622Z,97590.91
2022-10-29T21:23:21.303Z,97583.31
2022-10-29T21:25:53.588Z,97605.72
2022-10-29T21:28:20.411Z,97576.00
2022-10-29T21:30:47.141Z,97584.91
2022-10-29T21:33:13.839Z,97583.59
2022-10-29T21:35:40.815Z,97604.94
2022-10-29T21:38:07.470Z,97576.66
2022-10-29T21:40:34.480Z,97593.38
2022-10-29T21:43:01.131Z,97579.34
2022-10-29T21:45:27.817Z,97589.31
2022-10-29T21:47:54.420Z,97609.53
2022-10-29T21:50:21.189Z,97581.22
2022-10-29T21:52:47.855Z,97580.16
2022-10-29T21:55:14.547Z,97585.81
2022-10-29T21:57:44.222Z,97575.28
2022-10-29T22:00:12.386Z,97565.88
2022-10-29T22:02:39.174Z,97581.00
2022-10-29T22:05:06.094Z,97588.53
2022-10-29T22:07:32.777Z,97591.19
2022-10-29T22:09:59.443Z,97579.06
2022-10-29T22:12:26.027Z,97598.50
2022-10-29T22:14:52.684Z,97562.63
2022-10-29T22:17:19.396Z,97550.00
2022-10-29T22:19:46.048Z,97551.59
2022-10-29T22:22:12.768Z,97551.91
2022-10-29T22:24:39.441Z,97557.00
2022-10-29T22:27:06.082Z,97559.75
2022-10-29T22:29:32.710Z,97548.38
2022-10-29T22:31:59.339Z,97574.22
2022-10-29T22:34:25.949Z,97546.09
2022-10-29T22:36:52.801Z,97570.31
2022-10-29T22:39:19.432Z,97556.59
2022-10-29T22:41:46.032Z,97553.69
2022-10-29T22:44:12.694Z,97542.94
2022-10-29T22:46:39.308Z,97563.13
2022-10-29T22:49:06.011Z,97548.34
2022-10-29T22:51:32.931Z,97551.00
2022-10-29T22:53:59.740Z,97582.31
2022-10-29T22:56:28.279Z,97539.47
2022-10-29T22:58:55.228Z,97554.59
2022-10-29T23:01:23.808Z,97526.25
2022-10-29T23:03:50.735Z,97515.97
2022-10-29T23:06:18.992Z,97531.03
2022-10-29T23:08:45.695Z,97530.53
2022-10-29T23:11:13.122Z,97533.03
2022-10-29T23:13:39.762Z,97524.09
2022-10-29T23:16:06.981Z,97522.25
2022-10-29T23:18:33.688Z,97542.44
2022-10-29T23:21:01.379Z,97544.03
2022-10-29T23:23:27.954Z,97545.53
2022-10-29T23:25:54.652Z,97551.25
2022-10-29T23:28:21.296Z,97527.03
2022-10-29T23:30:53.282Z,97550.25
2022-10-29T23:33:19.984Z,97530.59
2022-10-29T23:35:46.709Z,97551.06
2022-10-29T23:38:13.308Z,97537.34
2022-10-29T23:40:40.028Z,97549.47
2022-10-29T23:43:06.636Z,97538.41
2022-10-29T23:45:33.231Z,97542.19
2022-10-29T23:48:00.196Z,97561.53
2022-10-29T23:50:27.053Z,97552.66
2022-10-29T23:52:53.679Z,97523.56
2022-10-29T23:55:20.304Z,97523.59
2022-10-29T23:57:46.968Z,97548.66
